KCOS/COS METAR and TAF weather

Enter ICAO airport designator
Station Type Date Time Source
KCOS METAR 2021/03/04 23:54 UTC NOAA

KCOS 042354Z 34024G33KT 9SM SCT015 BKN080 OVC150 02/00 A2998 RMK AO2 PK WND 33034/2329 SLP167 VCSH OMTNS W-NW 60026 T00220000 10061 20006 53010 $


Station Type Date Time Source
KCOS Decoded METAR 2021/03/04 23:54 UTC NOAA

COLORADO SPRINGS MUNI, CO, United States (KCOS) 38-49N 104-43W 1856M
Mar 04, 2021 - 06:54 PM EST / 2021.03.04 2354 UTC
Wind: from the NNW (340 degrees) at 28 MPH (24 KT) gusting to 38 MPH (33 KT):0
Visibility: 9 mile(s):0
Sky conditions: overcast
Temperature: 36.0 F (2.2 C)
Dew Point: 32.0 F (0.0 C)
Relative Humidity: 85%
Pressure (altimeter): 29.98 in. Hg (1015 hPa)
Pressure tendency: 0.03 inches (1.0 hPa) higher than three hours ago
ob: KCOS 042354Z 34024G33KT 9SM SCT015 BKN080 OVC150 02/00 A2998 RMK AO2 PK WND 33034/2329 SLP167 VCSH OMTNS W-NW 60026 T00220000 10061 20006 53010
cycle: 0

Station Type Date Time Source
KCOS TAF 2021/03/04 22:15 UTC NOAA

TAF
AMD KCOS 042212Z 0422/0518 34020G30KT 6SM -SN BKN035
TEMPO 0422/0423 3SM -SN BKN025
FM042300 36020G30KT P6SM VCSH SCT030 BKN050
TEMPO 0423/0503 4SM -SHSN BKN030
FM050500 34022G35KT P6SM SCT020 BKN050
FM050900 34010KT P6SM SCT120

Example: see airport list